createdAt,value
2023-03-19T00:00:38.009Z,25.40
2023-03-19T00:03:05.026Z,22.40
2023-03-19T00:05:32.134Z,26.63
2023-03-19T00:07:59.070Z,25.07
2023-03-19T00:10:26.049Z,25.47
2023-03-19T00:12:52.866Z,30.57
2023-03-19T00:15:19.744Z,24.57
2023-03-19T00:17:46.494Z,28.53
2023-03-19T00:20:15.073Z,23.60
2023-03-19T00:22:41.963Z,26.13
2023-03-19T00:25:10.106Z,27.37
2023-03-19T00:27:37.658Z,29.97
2023-03-19T00:30:06.420Z,27.77
2023-03-19T00:32:34.075Z,27.73
2023-03-19T00:35:01.508Z,24.77
2023-03-19T00:37:28.629Z,27.07
2023-03-19T00:39:56.170Z,28.50
2023-03-19T00:42:23.256Z,23.80
2023-03-19T00:44:50.341Z,28.07
2023-03-19T00:47:17.370Z,23.97
2023-03-19T00:49:44.249Z,24.27
2023-03-19T00:52:11.161Z,28.67
2023-03-19T00:54:37.934Z,23.10
2023-03-19T00:57:05.068Z,24.90
2023-03-19T00:59:31.861Z,23.37
2023-03-19T01:01:58.682Z,24.63
2023-03-19T01:04:25.978Z,28.67
2023-03-19T01:06:52.871Z,23.53
2023-03-19T01:09:19.886Z,24.47
2023-03-19T01:11:46.662Z,24.83
2023-03-19T01:14:16.237Z,26.07
2023-03-19T01:16:43.059Z,27.53
2023-03-19T01:19:09.901Z,25.87
2023-03-19T01:21:36.742Z,26.20
2023-03-19T01:24:03.610Z,24.30
2023-03-19T01:26:30.727Z,25.17
2023-03-19T01:28:58.392Z,22.90
2023-03-19T01:31:25.326Z,23.83
2023-03-19T01:33:53.040Z,23.70
2023-03-19T01:36:19.859Z,27.53
2023-03-19T01:38:46.707Z,24.43
2023-03-19T01:41:13.606Z,29.07
2023-03-19T01:43:40.724Z,24.40
2023-03-19T01:46:27.364Z,23.80
2023-03-19T01:49:01.228Z,27.67
2023-03-19T01:51:32.441Z,27.00
2023-03-19T01:54:02.504Z,25.17
2023-03-19T01:56:34.834Z,25.73
2023-03-19T01:59:07.530Z,26.50
2023-03-19T02:01:38.484Z,23.40
2023-03-19T02:04:07.091Z,28.80
2023-03-19T02:06:38.968Z,24.17
2023-03-19T02:09:06.327Z,26.53
2023-03-19T02:11:33.667Z,23.93
2023-03-19T02:14:00.797Z,27.17
2023-03-19T02:16:28.058Z,24.67
2023-03-19T02:18:56.463Z,25.67
2023-03-19T02:21:23.459Z,25.57
2023-03-19T02:24:11.889Z,26.27
2023-03-19T02:26:39.645Z,26.30
2023-03-19T02:29:06.424Z,27.90
2023-03-19T02:31:34.144Z,24.40
2023-03-19T02:34:03.588Z,24.27
2023-03-19T02:36:44.175Z,28.50
2023-03-19T02:39:22.280Z,25.27
2023-03-19T02:41:50.624Z,25.13
2023-03-19T02:44:19.998Z,26.27
2023-03-19T02:46:47.057Z,28.57
2023-03-19T02:49:13.962Z,26.90
2023-03-19T02:51:41.997Z,27.10
2023-03-19T02:54:09.694Z,27.47
2023-03-19T02:56:36.510Z,25.20
2023-03-19T02:59:03.326Z,27.67
2023-03-19T03:01:30.131Z,27.60
2023-03-19T03:03:56.939Z,27.93
2023-03-19T03:06:23.776Z,25.10
2023-03-19T03:08:50.565Z,26.30
2023-03-19T03:11:17.497Z,26.20
2023-03-19T03:13:44.627Z,24.33
2023-03-19T03:16:11.504Z,25.03
2023-03-19T03:18:38.301Z,27.57
2023-03-19T03:21:05.210Z,27.40
2023-03-19T03:23:32.024Z,23.80
2023-03-19T03:25:58.843Z,24.37
2023-03-19T03:28:25.734Z,25.93
2023-03-19T03:30:58.988Z,23.70
2023-03-19T03:33:26.197Z,24.60
2023-03-19T03:35:53.055Z,25.73
2023-03-19T03:38:20.098Z,29.10
2023-03-19T03:40:53.865Z,26.47
2023-03-19T03:43:21.270Z,23.13
2023-03-19T03:45:48.907Z,25.20
2023-03-19T03:48:16.685Z,27.50
2023-03-19T03:50:43.840Z,25.47
2023-03-19T03:53:12.069Z,25.43
2023-03-19T03:55:39.372Z,26.83
2023-03-19T03:58:06.437Z,23.00
2023-03-19T04:00:33.771Z,22.17
2023-03-19T04:03:01.149Z,27.00
2023-03-19T04:05:27.921Z,24.67
2023-03-19T04:07:54.907Z,27.13
2023-03-19T04:10:21.783Z,27.87
2023-03-19T04:12:48.634Z,28.37
2023-03-19T04:15:15.550Z,26.87
2023-03-19T04:17:42.706Z,27.13
2023-03-19T04:20:11.114Z,24.27
2023-03-19T04:22:37.963Z,23.37
2023-03-19T04:25:05.610Z,23.40
2023-03-19T04:27:32.535Z,24.43
2023-03-19T04:29:59.512Z,24.33
2023-03-19T04:32:26.297Z,23.97
2023-03-19T04:34:53.192Z,25.20
2023-03-19T04:37:20.031Z,27.50
2023-03-19T04:39:47.344Z,25.27
2023-03-19T04:42:14.132Z,26.67
2023-03-19T04:44:40.931Z,25.10
2023-03-19T04:47:08.085Z,22.83
2023-03-19T04:49:35.167Z,24.30
2023-03-19T04:52:01.981Z,25.97
2023-03-19T04:54:28.896Z,25.40
2023-03-19T04:56:55.769Z,23.73
2023-03-19T04:59:23.253Z,26.30
2023-03-19T05:01:50.198Z,28.37
2023-03-19T05:04:17.827Z,28.27
2023-03-19T05:06:44.841Z,28.23
2023-03-19T05:09:11.637Z,25.07
2023-03-19T05:11:38.764Z,25.27
2023-03-19T05:14:05.715Z,27.23
2023-03-19T05:16:33.039Z,25.97
2023-03-19T05:19:01.172Z,27.87
2023-03-19T05:21:28.142Z,26.67
2023-03-19T05:23:57.199Z,27.50
2023-03-19T05:26:24.236Z,28.57
2023-03-19T05:28:51.029Z,27.67
2023-03-19T05:31:17.878Z,27.13
2023-03-19T05:33:44.682Z,28.70
2023-03-19T05:36:12.431Z,26.73
2023-03-19T05:38:39.458Z,25.87
2023-03-19T05:41:07.188Z,27.87
2023-03-19T05:43:34.198Z,29.70
2023-03-19T05:46:01.700Z,30.30
2023-03-19T05:48:28.600Z,27.30
2023-03-19T05:50:56.270Z,29.00
2023-03-19T05:53:23.269Z,27.33
2023-03-19T05:55:50.064Z,28.27
2023-03-19T05:58:17.032Z,30.97
2023-03-19T06:00:44.013Z,27.30
2023-03-19T06:03:11.139Z,27.43
2023-03-19T06:05:38.559Z,28.57
2023-03-19T06:08:05.640Z,29.50
2023-03-19T06:10:34.100Z,29.97
2023-03-19T06:13:00.956Z,31.03
2023-03-19T06:15:27.993Z,31.60
2023-03-19T06:17:54.754Z,29.47
2023-03-19T06:20:21.923Z,28.00
2023-03-19T06:22:48.984Z,26.40
2023-03-19T06:25:16.110Z,26.87
2023-03-19T06:27:43.081Z,36.30
2023-03-19T06:30:10.600Z,26.60
2023-03-19T06:32:38.925Z,32.40
2023-03-19T06:35:06.683Z,28.23
2023-03-19T06:37:33.656Z,32.03
2023-03-19T06:40:00.453Z,33.83
2023-03-19T06:42:27.824Z,32.67
2023-03-19T06:44:54.679Z,32.27
2023-03-19T06:47:21.452Z,29.80
2023-03-19T06:49:48.331Z,29.50
2023-03-19T06:52:15.599Z,31.80
2023-03-19T06:54:42.416Z,28.87
2023-03-19T06:57:09.361Z,34.33
2023-03-19T06:59:36.208Z,31.53
2023-03-19T07:02:03.267Z,26.07
2023-03-19T07:04:30.737Z,23.63
2023-03-19T07:06:57.591Z,25.40
2023-03-19T07:09:24.346Z,24.50
2023-03-19T07:11:51.125Z,27.17
2023-03-19T07:14:19.168Z,29.03
2023-03-19T07:16:49.488Z,25.43
2023-03-19T07:19:16.523Z,21.23
2023-03-19T07:21:43.302Z,21.77
2023-03-19T07:24:10.076Z,20.93
2023-03-19T07:26:36.924Z,22.90
2023-03-19T07:29:04.099Z,22.30
2023-03-19T07:31:31.426Z,24.23
2023-03-19T07:33:58.259Z,24.67
2023-03-19T07:36:25.092Z,19.47
2023-03-19T07:38:51.948Z,21.30
2023-03-19T07:41:18.765Z,24.20
2023-03-19T07:43:45.546Z,21.27
2023-03-19T07:46:12.555Z,22.10
2023-03-19T07:48:39.382Z,21.17
2023-03-19T07:51:10.323Z,22.93
2023-03-19T07:53:39.909Z,22.80
2023-03-19T07:56:07.169Z,23.80
2023-03-19T07:58:34.020Z,20.57
2023-03-19T08:01:00.909Z,21.33
2023-03-19T08:03:28.004Z,23.70
2023-03-19T08:05:54.890Z,19.50
2023-03-19T08:08:21.835Z,21.87
2023-03-19T08:10:50.789Z,22.90
2023-03-19T08:13:17.802Z,21.13
2023-03-19T08:15:44.610Z,22.70
2023-03-19T08:18:11.571Z,18.30
2023-03-19T08:20:38.375Z,19.67
2023-03-19T08:23:05.243Z,19.77
2023-03-19T08:25:32.700Z,20.67
2023-03-19T08:28:02.918Z,20.30
2023-03-19T08:30:29.816Z,19.60
2023-03-19T08:32:57.181Z,19.33
2023-03-19T08:35:27.062Z,20.53
2023-03-19T08:37:54.620Z,21.43
2023-03-19T08:40:21.913Z,19.43
2023-03-19T08:42:49.084Z,18.90
2023-03-19T08:45:16.799Z,19.00
2023-03-19T08:47:44.043Z,16.73
2023-03-19T08:50:11.661Z,19.40
2023-03-19T08:52:39.263Z,18.80
2023-03-19T08:55:07.897Z,17.63
2023-03-19T08:57:35.635Z,15.93
2023-03-19T09:00:06.456Z,16.17
2023-03-19T09:02:33.392Z,17.17
2023-03-19T09:05:00.289Z,17.87
2023-03-19T09:07:27.161Z,15.50
2023-03-19T09:09:53.958Z,13.80
2023-03-19T09:12:21.037Z,15.60
2023-03-19T09:14:47.833Z,13.90
2023-03-19T09:17:15.620Z,14.80
2023-03-19T09:19:42.542Z,16.77
2023-03-19T09:22:09.347Z,11.90
2023-03-19T09:24:40.107Z,15.87
2023-03-19T09:27:15.726Z,13.30
2023-03-19T09:29:42.646Z,13.20
2023-03-19T09:32:09.595Z,14.13
2023-03-19T09:34:36.462Z,15.53
2023-03-19T09:37:12.200Z,12.10
2023-03-19T09:39:39.253Z,14.63
2023-03-19T09:42:43.095Z,13.07
2023-03-19T09:45:18.454Z,11.60
2023-03-19T09:47:48.829Z,15.60
2023-03-19T09:50:25.169Z,15.43
2023-03-19T09:53:10.270Z,11.37
2023-03-19T09:55:44.047Z,14.10
2023-03-19T09:58:20.324Z,14.77
2023-03-19T10:00:53.113Z,13.10
2023-03-19T10:03:32.119Z,12.03
2023-03-19T10:06:27.195Z,12.27
2023-03-19T10:09:01.030Z,12.20
2023-03-19T10:12:02.436Z,13.23
2023-03-19T10:15:00.415Z,10.80
2023-03-19T10:17:39.704Z,10.80
2023-03-19T10:20:30.364Z,11.70
2023-03-19T10:23:19.629Z,13.53
2023-03-19T10:25:47.066Z,11.57
2023-03-19T10:28:18.861Z,12.97
2023-03-19T10:30:58.165Z,11.33
2023-03-19T10:33:32.806Z,10.60
2023-03-19T10:36:14.831Z,12.40
2023-03-19T10:38:43.789Z,12.83
2023-03-19T10:41:24.805Z,13.03
2023-03-19T10:43:59.956Z,11.10
2023-03-19T10:46:26.773Z,13.50
2023-03-19T10:48:53.950Z,11.57
2023-03-19T10:51:27.315Z,11.83
2023-03-19T10:53:58.016Z,12.40
2023-03-19T10:56:27.144Z,11.80
2023-03-19T10:59:20.930Z,9.83
2023-03-19T11:01:47.799Z,11.73
2023-03-19T11:04:17.602Z,11.27
2023-03-19T11:06:53.404Z,11.93
2023-03-19T11:09:45.776Z,16.13
2023-03-19T11:12:43.369Z,11.00
2023-03-19T11:15:21.770Z,13.10
2023-03-19T11:18:06.138Z,11.67
2023-03-19T11:20:35.548Z,13.03
2023-03-19T11:23:07.731Z,12.53
2023-03-19T11:25:55.947Z,13.27
2023-03-19T11:28:26.760Z,13.33
2023-03-19T11:31:11.615Z,11.70
2023-03-19T11:33:50.246Z,13.30
2023-03-19T11:36:41.551Z,11.07
2023-03-19T11:39:37.491Z,12.33
2023-03-19T11:42:33.260Z,11.80
2023-03-19T11:45:20.915Z,12.27
2023-03-19T11:47:59.699Z,10.70
2023-03-19T11:51:02.228Z,12.32
2023-03-19T11:53:41.920Z,11.57
2023-03-19T11:56:33.350Z,11.30
2023-03-19T11:59:04.261Z,11.27
2023-03-19T12:02:10.388Z,13.20
2023-03-19T12:04:49.335Z,12.23
2023-03-19T12:07:44.234Z,13.27
2023-03-19T12:10:28.679Z,11.80
2023-03-19T12:12:57.974Z,11.57
2023-03-19T12:15:36.023Z,13.00
2023-03-19T12:18:09.064Z,14.10
2023-03-19T12:20:47.849Z,14.03
2023-03-19T12:23:29.931Z,12.95
2023-03-19T12:26:05.352Z,14.30
2023-03-19T12:28:39.595Z,14.57
2023-03-19T12:31:34.500Z,11.97
2023-03-19T12:34:01.284Z,12.80
2023-03-19T12:36:33.430Z,13.00
2023-03-19T12:39:12.394Z,10.77
2023-03-19T12:41:43.836Z,11.33
2023-03-19T12:44:18.651Z,13.17
2023-03-19T12:47:09.743Z,10.93
2023-03-19T12:49:40.554Z,11.97
2023-03-19T12:52:33.921Z,13.10
2023-03-19T12:55:25.985Z,10.93
2023-03-19T12:58:01.860Z,12.63
2023-03-19T13:00:47.567Z,11.40
2023-03-19T13:03:34.957Z,14.17
2023-03-19T13:06:08.518Z,12.87
2023-03-19T13:08:39.381Z,12.47
2023-03-19T13:11:16.075Z,10.40
2023-03-19T13:13:58.867Z,11.30
2023-03-19T13:16:45.400Z,11.63
2023-03-19T13:19:15.007Z,11.10
2023-03-19T13:21:42.830Z,10.70
2023-03-19T13:24:29.285Z,10.77
2023-03-19T13:26:59.339Z,11.37
2023-03-19T13:29:31.713Z,10.53
2023-03-19T13:32:05.747Z,10.40
2023-03-19T13:34:35.527Z,9.63
2023-03-19T13:37:18.230Z,9.87
2023-03-19T13:39:48.482Z,10.63
2023-03-19T13:42:37.988Z,10.50
2023-03-19T13:45:25.195Z,9.60
2023-03-19T13:47:52.902Z,10.47
2023-03-19T13:50:19.722Z,10.87
2023-03-19T13:52:46.498Z,12.07
2023-03-19T13:55:25.879Z,12.10
2023-03-19T13:58:12.268Z,11.17
2023-03-19T14:00:42.870Z,9.27
2023-03-19T14:03:40.851Z,12.00
2023-03-19T14:06:33.413Z,11.17
2023-03-19T14:09:00.542Z,11.90
2023-03-19T14:11:33.753Z,10.57
2023-03-19T14:14:05.491Z,9.93
2023-03-19T14:16:36.674Z,11.40
2023-03-19T14:19:10.956Z,10.43
2023-03-19T14:21:55.922Z,9.17
2023-03-19T14:25:03.979Z,11.00
2023-03-19T14:27:33.330Z,8.97
2023-03-19T14:30:10.016Z,10.83
2023-03-19T14:32:47.922Z,9.47
2023-03-19T14:35:20.637Z,9.83
2023-03-19T14:37:51.005Z,9.27
2023-03-19T14:40:24.404Z,10.83
2023-03-19T14:43:10.312Z,11.20
2023-03-19T14:46:04.500Z,10.83
2023-03-19T14:49:16.153Z,10.07
2023-03-19T14:52:10.419Z,8.13
2023-03-19T14:55:12.900Z,9.90
2023-03-19T14:57:39.741Z,8.23
2023-03-19T15:00:13.624Z,9.07
2023-03-19T15:02:42.462Z,10.57
2023-03-19T15:05:17.161Z,11.73
2023-03-19T15:07:48.053Z,9.70
2023-03-19T15:10:19.321Z,11.37
2023-03-19T15:13:21.254Z,8.87
2023-03-19T15:16:10.857Z,9.43
2023-03-19T15:18:38.688Z,11.23
2023-03-19T15:21:06.299Z,10.07
2023-03-19T15:23:33.393Z,9.27
2023-03-19T15:26:03.217Z,8.27
2023-03-19T15:28:37.550Z,11.57
2023-03-19T15:31:28.741Z,9.67
2023-03-19T15:33:54.554Z,9.87
2023-03-19T15:36:30.322Z,10.80
2023-03-19T15:39:02.584Z,9.50
2023-03-19T15:41:32.764Z,10.47
2023-03-19T15:44:01.657Z,8.77
2023-03-19T15:46:33.530Z,9.23
2023-03-19T15:49:14.887Z,10.00
2023-03-19T15:51:45.067Z,9.33
2023-03-19T15:54:12.300Z,9.73
2023-03-19T15:56:42.377Z,8.10
2023-03-19T15:59:10.358Z,9.57
2023-03-19T16:01:38.554Z,10.30
2023-03-19T16:04:16.321Z,10.40
2023-03-19T16:06:43.123Z,10.07
2023-03-19T16:09:26.272Z,9.87
2023-03-19T16:11:55.039Z,8.57
2023-03-19T16:14:27.323Z,11.13
2023-03-19T16:17:20.374Z,12.37
2023-03-19T16:19:50.343Z,10.90
2023-03-19T16:22:21.492Z,11.30
2023-03-19T16:24:51.354Z,11.97
2023-03-19T16:27:36.327Z,11.93
2023-03-19T16:30:13.730Z,10.33
2023-03-19T16:32:42.375Z,9.70
2023-03-19T16:35:20.126Z,11.13
2023-03-19T16:37:52.247Z,10.87
2023-03-19T16:40:20.661Z,11.97
2023-03-19T16:42:56.565Z,14.23
2023-03-19T16:45:32.592Z,9.57
2023-03-19T16:48:03.532Z,11.40
2023-03-19T16:50:53.980Z,12.38
2023-03-19T16:53:27.001Z,13.80
2023-03-19T16:55:56.020Z,12.83
2023-03-19T16:58:35.042Z,11.80
2023-03-19T17:01:04.385Z,11.80
2023-03-19T17:03:31.220Z,11.63
2023-03-19T17:05:58.115Z,12.77
2023-03-19T17:08:26.246Z,11.17
2023-03-19T17:10:55.910Z,12.57
2023-03-19T17:13:28.632Z,10.40
2023-03-19T17:16:04.756Z,16.40
2023-03-19T17:18:36.700Z,12.47
2023-03-19T17:21:09.208Z,13.73
2023-03-19T17:23:37.964Z,14.03
2023-03-19T17:26:14.630Z,13.97
2023-03-19T17:28:41.737Z,13.80
2023-03-19T17:31:31.264Z,11.87
2023-03-19T17:34:14.242Z,11.60
2023-03-19T17:36:57.411Z,14.27
2023-03-19T17:39:25.386Z,16.10
2023-03-19T17:41:53.881Z,11.33
2023-03-19T17:44:20.949Z,16.97
2023-03-19T17:46:50.502Z,19.57
2023-03-19T17:49:25.094Z,14.70
2023-03-19T17:51:52.381Z,15.40
2023-03-19T17:54:19.327Z,16.40
2023-03-19T17:56:46.215Z,16.50
2023-03-19T17:59:13.535Z,15.40
2023-03-19T18:01:43.798Z,16.83
2023-03-19T18:04:14.698Z,13.57
2023-03-19T18:06:49.318Z,15.40
2023-03-19T18:09:25.852Z,14.27
2023-03-19T18:11:52.992Z,13.90
2023-03-19T18:14:20.320Z,20.53
2023-03-19T18:16:51.665Z,16.13
2023-03-19T18:19:39.691Z,18.47
2023-03-19T18:22:13.853Z,16.90
2023-03-19T18:24:43.708Z,18.47
2023-03-19T18:27:11.303Z,29.20
2023-03-19T18:29:38.195Z,17.47
2023-03-19T18:32:14.916Z,18.93
2023-03-19T18:34:42.945Z,17.17
2023-03-19T18:37:19.368Z,16.53
2023-03-19T18:39:46.226Z,15.87
2023-03-19T18:42:16.905Z,15.37
2023-03-19T18:44:43.874Z,17.00
2023-03-19T18:47:14.683Z,19.23
2023-03-19T18:49:42.676Z,19.43
2023-03-19T18:52:17.873Z,19.37
2023-03-19T18:54:46.256Z,18.40
2023-03-19T18:57:14.674Z,18.93
2023-03-19T18:59:41.868Z,20.70
2023-03-19T19:02:30.438Z,19.33
2023-03-19T19:04:58.236Z,22.67
2023-03-19T19:07:25.044Z,22.67
2023-03-19T19:09:55.964Z,24.93
2023-03-19T19:12:24.695Z,26.23
2023-03-19T19:14:52.704Z,22.53
2023-03-19T19:17:24.020Z,19.97
2023-03-19T19:19:51.054Z,22.47
2023-03-19T19:22:19.286Z,20.47
2023-03-19T19:24:46.317Z,22.90
2023-03-19T19:27:26.204Z,23.63
2023-03-19T19:29:53.235Z,23.73
2023-03-19T19:32:25.144Z,23.50
2023-03-19T19:34:52.569Z,22.63
2023-03-19T19:37:19.902Z,23.17
2023-03-19T19:39:47.071Z,24.87
2023-03-19T19:42:17.933Z,25.27
2023-03-19T19:44:51.759Z,24.10
2023-03-19T19:47:18.885Z,25.60
2023-03-19T19:49:46.010Z,24.63
2023-03-19T19:52:18.640Z,23.20
2023-03-19T19:54:46.239Z,24.67
2023-03-19T19:57:24.934Z,26.23
2023-03-19T19:59:53.303Z,26.37
2023-03-19T20:02:31.099Z,25.70
2023-03-19T20:04:58.682Z,24.93
2023-03-19T20:07:25.819Z,23.63
2023-03-19T20:09:52.656Z,23.47
2023-03-19T20:12:24.437Z,20.87
2023-03-19T20:14:52.441Z,24.93
2023-03-19T20:17:21.114Z,23.80
2023-03-19T20:19:47.984Z,24.10
2023-03-19T20:25:58.707Z,23.30
2023-03-19T20:28:32.432Z,23.27
2023-03-19T20:31:04.272Z,23.50
2023-03-19T20:33:32.467Z,23.57
2023-03-19T20:35:59.458Z,30.38
2023-03-19T20:38:27.970Z,27.50
2023-03-19T20:40:57.354Z,30.50
2023-03-19T20:43:35.439Z,28.90
2023-03-19T20:46:05.368Z,26.43
2023-03-19T20:48:34.127Z,27.73
2023-03-19T20:51:02.478Z,26.83
2023-03-19T20:53:29.499Z,29.80
2023-03-19T20:55:57.764Z,25.70
2023-03-19T20:58:37.005Z,31.90
2023-03-19T21:01:04.159Z,29.90
2023-03-19T21:03:32.717Z,27.27
2023-03-19T21:06:06.675Z,28.47
2023-03-19T21:08:39.014Z,30.33
2023-03-19T21:11:11.496Z,27.63
2023-03-19T21:13:44.424Z,28.67
2023-03-19T21:16:20.424Z,26.77
2023-03-19T21:18:47.988Z,26.77
2023-03-19T21:21:16.546Z,28.93
2023-03-19T21:24:02.819Z,30.10
2023-03-19T21:26:30.193Z,28.83
2023-03-19T21:29:05.960Z,28.77
2023-03-19T21:31:33.500Z,33.67
2023-03-19T21:34:01.272Z,32.00
2023-03-19T21:36:29.059Z,30.50
2023-03-19T21:38:57.305Z,32.60
2023-03-19T21:41:30.334Z,31.77
2023-03-19T21:44:04.208Z,30.53
2023-03-19T21:46:32.366Z,31.10
2023-03-19T21:49:00.147Z,35.27
2023-03-19T21:51:28.705Z,35.30
2023-03-19T21:53:56.945Z,37.87
2023-03-19T21:56:33.622Z,37.27
2023-03-19T21:59:03.574Z,38.97
2023-03-19T22:01:30.658Z,40.10
2023-03-19T22:03:58.105Z,38.13
2023-03-19T22:06:25.809Z,44.23
2023-03-19T22:08:56.253Z,45.73
2023-03-19T22:11:32.154Z,45.87
2023-03-19T22:14:21.548Z,42.27
2023-03-19T22:16:53.451Z,45.90
2023-03-19T22:19:20.897Z,47.93
2023-03-19T22:21:47.860Z,47.03
2023-03-19T22:24:14.691Z,49.88
2023-03-19T22:26:43.583Z,46.90
2023-03-19T22:29:25.488Z,42.23
2023-03-19T22:31:53.875Z,47.42
2023-03-19T22:34:23.320Z,46.00
2023-03-19T22:36:51.631Z,46.73
2023-03-19T22:39:18.769Z,47.37
2023-03-19T22:41:48.118Z,46.13
2023-03-19T22:44:35.363Z,47.27
2023-03-19T22:47:02.385Z,44.63
2023-03-19T22:49:29.978Z,46.10
2023-03-19T22:51:57.729Z,45.87
2023-03-19T22:54:24.645Z,45.67
2023-03-19T22:56:52.366Z,42.80
2023-03-19T22:59:20.233Z,44.83
2023-03-19T23:01:47.782Z,46.80
2023-03-19T23:04:22.151Z,48.93
2023-03-19T23:06:50.140Z,45.33
2023-03-19T23:09:29.839Z,42.90
2023-03-19T23:11:58.026Z,44.43
2023-03-19T23:14:30.230Z,49.63
2023-03-19T23:17:03.945Z,45.73
2023-03-19T23:19:32.089Z,47.60
2023-03-19T23:22:00.713Z,46.47
2023-03-19T23:24:31.599Z,47.20
2023-03-19T23:27:00.369Z,43.77
2023-03-19T23:29:29.798Z,45.07
2023-03-19T23:31:59.879Z,36.57
2023-03-19T23:34:28.591Z,40.33
2023-03-19T23:36:56.179Z,39.90
2023-03-19T23:39:24.019Z,39.30
2023-03-19T23:41:54.720Z,38.57
2023-03-19T23:44:23.531Z,40.20
2023-03-19T23:46:51.609Z,36.90
2023-03-19T23:49:30.817Z,43.27
2023-03-19T23:51:58.004Z,42.23
2023-03-19T23:54:30.544Z,39.87
2023-03-19T23:56:59.838Z,38.63
2023-03-19T23:59:30.637Z,38.50
